createdAt,value
2019-05-05T00:01:26.412Z,99.00
2019-05-05T00:04:11.741Z,99.30
2019-05-05T00:06:42.084Z,99.50
2019-05-05T00:09:14.468Z,99.20
2019-05-05T00:11:44.514Z,99.00
2019-05-05T00:14:17.314Z,99.20
2019-05-05T00:16:54.667Z,99.30
2019-05-05T00:19:32.596Z,99.20
2019-05-05T00:21:56.989Z,99.30
2019-05-05T00:24:25.761Z,98.90
2019-05-05T00:26:55.422Z,99.00
2019-05-05T00:29:26.241Z,99.30
2019-05-05T00:31:55.296Z,99.00
2019-05-05T00:34:24.431Z,99.10
2019-05-05T00:36:55.030Z,98.80
2019-05-05T00:39:25.321Z,99.20
2019-05-05T00:41:55.507Z,99.30
2019-05-05T00:44:24.759Z,99.20
2019-05-05T00:46:55.404Z,99.10
2019-05-05T00:49:26.123Z,99.30
2019-05-05T00:51:55.262Z,99.30
2019-05-05T00:54:24.411Z,99.20
2019-05-05T00:56:54.480Z,99.40
2019-05-05T00:59:25.250Z,99.20
2019-05-05T01:02:12.083Z,99.60
2019-05-05T01:04:45.730Z,99.40
2019-05-05T01:07:16.386Z,99.40
2019-05-05T01:09:45.204Z,99.20
2019-05-05T01:12:14.983Z,99.30
2019-05-05T01:14:44.748Z,99.30
2019-05-05T01:17:15.017Z,99.40
2019-05-05T01:19:45.393Z,99.50
2019-05-05T01:22:14.403Z,99.10
2019-05-05T01:24:45.757Z,99.10
2019-05-05T01:27:14.763Z,98.90
2019-05-05T01:29:45.234Z,99.10
2019-05-05T01:32:15.293Z,99.40
2019-05-05T01:34:45.764Z,99.40
2019-05-05T01:37:16.412Z,99.30
2019-05-05T01:39:54.241Z,99.60
2019-05-05T01:42:24.718Z,99.10
2019-05-05T01:44:52.852Z,99.80
2019-05-05T01:47:21.420Z,99.60
2019-05-05T01:49:50.584Z,99.60
2019-05-05T01:52:19.245Z,99.70
2019-05-05T01:54:47.967Z,99.20
2019-05-05T01:57:16.508Z,99.50
2019-05-05T01:59:45.066Z,99.10
2019-05-05T02:02:14.660Z,99.00
2019-05-05T02:04:44.717Z,98.80
2019-05-05T02:07:14.596Z,99.10
2019-05-05T02:09:44.794Z,99.20
2019-05-05T02:12:15.192Z,99.40
2019-05-05T02:14:44.414Z,99.30
2019-05-05T02:17:14.369Z,99.50
2019-05-05T02:19:44.358Z,99.50
2019-05-05T02:22:14.720Z,99.50
2019-05-05T02:24:44.484Z,99.30
2019-05-05T02:27:14.535Z,99.50
2019-05-05T02:29:47.802Z,98.90
2019-05-05T02:32:36.141Z,99.00
2019-05-05T02:35:08.845Z,99.30
2019-05-05T02:37:37.854Z,99.00
2019-05-05T02:40:08.918Z,99.40
2019-05-05T02:42:37.228Z,99.30
2019-05-05T02:45:07.466Z,99.30
2019-05-05T02:47:47.470Z,99.40
2019-05-05T02:50:16.492Z,99.50
2019-05-05T02:52:45.670Z,99.50
2019-05-05T02:55:14.726Z,99.30
2019-05-05T02:57:43.980Z,99.40
2019-05-05T03:00:19.895Z,99.60
2019-05-05T03:02:48.282Z,99.30
2019-05-05T03:05:16.850Z,99.60
2019-05-05T03:07:45.661Z,99.20
2019-05-05T03:10:14.265Z,99.30
2019-05-05T03:12:44.665Z,99.30
2019-05-05T03:15:16.599Z,99.30
2019-05-05T03:17:45.482Z,99.80
2019-05-05T03:20:14.603Z,99.40
2019-05-05T03:22:43.537Z,99.60
2019-05-05T03:25:13.591Z,99.50
2019-05-05T03:27:42.218Z,99.50
2019-05-05T03:30:10.582Z,99.40
2019-05-05T03:32:39.306Z,99.70
2019-05-05T03:35:07.806Z,99.40
2019-05-05T03:37:36.539Z,99.40
2019-05-05T03:40:08.260Z,99.30
2019-05-05T03:42:38.313Z,99.50
2019-05-05T03:45:08.262Z,99.50
2019-05-05T03:47:36.011Z,99.40
2019-05-05T03:50:06.516Z,99.40
2019-05-05T03:52:35.261Z,99.60
2019-05-05T03:55:06.524Z,99.40
2019-05-05T03:57:34.890Z,99.70
2019-05-05T04:00:04.452Z,99.40
2019-05-05T04:02:34.928Z,99.70
2019-05-05T04:05:23.451Z,99.60
2019-05-05T04:07:51.568Z,99.40
2019-05-05T04:10:20.240Z,99.60
2019-05-05T04:12:48.868Z,99.40
2019-05-05T04:15:17.780Z,99.40
2019-05-05T04:17:54.371Z,99.60
2019-05-05T04:20:24.874Z,99.60
2019-05-05T04:22:54.269Z,99.50
2019-05-05T04:25:24.430Z,99.30
2019-05-05T04:27:53.861Z,99.50
2019-05-05T04:30:23.719Z,99.40
2019-05-05T04:32:51.525Z,99.80
2019-05-05T04:35:20.186Z,99.50
2019-05-05T04:37:49.017Z,99.60
2019-05-05T04:40:17.419Z,99.50
2019-05-05T04:42:45.936Z,99.30
2019-05-05T04:45:14.908Z,99.70
2019-05-05T04:47:47.739Z,99.60
2019-05-05T04:50:37.851Z,99.50
2019-05-05T04:53:17.142Z,99.40
2019-05-05T04:55:45.676Z,99.20
2019-05-05T04:58:14.035Z,99.50
2019-05-05T05:00:44.149Z,99.40
2019-05-05T05:03:27.726Z,99.30
2019-05-05T05:05:57.769Z,99.50
2019-05-05T05:08:26.392Z,99.60
2019-05-05T05:10:55.183Z,99.50
2019-05-05T05:13:24.609Z,99.60
2019-05-05T05:15:54.084Z,99.70
2019-05-05T05:18:30.616Z,99.60
2019-05-05T05:20:59.751Z,99.50
2019-05-05T05:23:29.721Z,99.70
2019-05-05T05:26:00.611Z,99.30
2019-05-05T05:28:29.318Z,99.60
2019-05-05T05:31:03.818Z,99.60
2019-05-05T05:33:34.500Z,99.70
2019-05-05T05:36:04.147Z,99.50
2019-05-05T05:38:34.617Z,99.50
2019-05-05T05:41:11.102Z,99.30
2019-05-05T05:43:44.827Z,99.20
2019-05-05T05:46:26.745Z,99.20
2019-05-05T05:48:56.913Z,99.20
2019-05-05T05:51:25.498Z,99.50
2019-05-05T05:53:59.191Z,99.20
2019-05-05T05:56:29.899Z,99.20
2019-05-05T05:58:58.566Z,98.90
2019-05-05T06:01:27.032Z,99.20
2019-05-05T06:03:57.789Z,99.00
2019-05-05T06:06:26.884Z,99.00
2019-05-05T06:08:58.111Z,99.30
2019-05-05T06:11:27.981Z,99.10
2019-05-05T06:13:57.950Z,99.20
2019-05-05T06:16:26.820Z,98.80
2019-05-05T06:18:55.464Z,98.90
2019-05-05T06:21:25.936Z,99.10
2019-05-05T06:23:54.896Z,99.00
2019-05-05T06:26:24.209Z,99.20
2019-05-05T06:28:56.786Z,99.00
2019-05-05T06:31:28.191Z,98.80
2019-05-05T06:34:03.752Z,98.80
2019-05-05T06:36:39.951Z,98.80
2019-05-05T06:39:10.518Z,98.60
2019-05-05T06:41:49.462Z,98.60
2019-05-05T06:44:30.943Z,98.90
2019-05-05T06:47:06.640Z,98.80
2019-05-05T06:49:54.200Z,98.60
2019-05-05T06:52:19.999Z,98.50
2019-05-05T06:54:54.279Z,98.80
2019-05-05T06:57:26.099Z,98.10
2019-05-05T06:59:54.740Z,98.40
2019-05-05T07:02:29.552Z,98.30
2019-05-05T07:04:59.808Z,98.20
2019-05-05T07:07:34.277Z,98.60
2019-05-05T07:10:03.758Z,98.10
2019-05-05T07:12:34.709Z,98.20
2019-05-05T07:15:10.623Z,98.50
2019-05-05T07:17:40.199Z,98.30
2019-05-05T07:20:13.441Z,98.10
2019-05-05T07:22:56.280Z,97.80
2019-05-05T07:25:13.710Z,97.90
2019-05-05T07:27:44.269Z,98.20
2019-05-05T07:30:18.591Z,98.20
2019-05-05T07:32:54.177Z,98.00
2019-05-05T07:35:30.663Z,97.50
2019-05-05T07:38:04.481Z,98.20
2019-05-05T07:40:40.836Z,97.60
2019-05-05T07:43:36.135Z,97.10
2019-05-05T07:46:13.408Z,97.20
2019-05-05T07:48:45.605Z,97.40
2019-05-05T07:51:20.896Z,97.80
2019-05-05T07:53:49.764Z,97.10
2019-05-05T07:56:18.925Z,96.20
2019-05-05T07:58:50.187Z,96.00
2019-05-05T08:01:33.659Z,96.00
2019-05-05T08:04:01.092Z,96.40
2019-05-05T08:06:30.419Z,97.30
2019-05-05T08:08:59.148Z,96.40
2019-05-05T08:11:36.781Z,96.70
2019-05-05T08:14:10.489Z,96.50
2019-05-05T08:16:46.309Z,97.60
2019-05-05T08:19:38.746Z,97.40
2019-05-05T08:22:11.659Z,97.10
2019-05-05T08:25:04.098Z,97.30
2019-05-05T08:27:47.508Z,96.90
2019-05-05T08:30:26.214Z,97.60
2019-05-05T08:33:04.622Z,98.50
2019-05-05T08:35:36.179Z,97.10
2019-05-05T08:38:10.065Z,97.70
2019-05-05T08:40:43.841Z,97.90
2019-05-05T08:43:16.858Z,98.50
2019-05-05T08:45:49.838Z,98.30
2019-05-05T08:48:20.238Z,97.80
2019-05-05T08:50:54.025Z,98.30
2019-05-05T08:53:24.196Z,98.60
2019-05-05T08:55:55.788Z,98.10
2019-05-05T08:58:43.633Z,96.60
2019-05-05T09:01:11.969Z,97.20
2019-05-05T09:03:44.558Z,97.60
2019-05-05T09:06:13.963Z,96.80
2019-05-05T09:08:44.197Z,95.90
2019-05-05T09:11:15.090Z,97.20
2019-05-05T09:13:54.241Z,97.40
2019-05-05T09:16:24.182Z,96.80
2019-05-05T09:19:01.481Z,97.50
2019-05-05T09:21:29.860Z,95.70
2019-05-05T09:24:03.182Z,95.90
2019-05-05T09:26:39.396Z,95.40
2019-05-05T09:29:24.174Z,96.20
2019-05-05T09:31:54.051Z,96.50
2019-05-05T09:34:24.035Z,96.50
2019-05-05T09:36:54.301Z,96.10
2019-05-05T09:39:23.968Z,96.50
2019-05-05T09:41:54.765Z,97.00
2019-05-05T09:44:24.245Z,96.60
2019-05-05T09:47:00.631Z,96.70
2019-05-05T09:49:31.188Z,95.70
2019-05-05T09:52:01.717Z,96.40
2019-05-05T09:54:30.284Z,95.70
2019-05-05T09:56:59.845Z,96.80
2019-05-05T09:59:28.605Z,96.80
2019-05-05T10:01:59.021Z,97.20
2019-05-05T10:04:28.945Z,97.00
2019-05-05T10:07:00.833Z,96.70
2019-05-05T10:09:29.987Z,97.40
2019-05-05T10:11:58.570Z,96.10
2019-05-05T10:14:27.145Z,96.30
2019-05-05T10:16:56.122Z,95.70
2019-05-05T10:19:25.498Z,94.80
2019-05-05T10:21:56.171Z,93.30
2019-05-05T10:24:31.166Z,93.80
2019-05-05T10:26:59.229Z,94.40
2019-05-05T10:29:28.036Z,93.70
2019-05-05T10:32:00.827Z,95.20
2019-05-05T10:34:33.500Z,95.20
2019-05-05T10:37:06.519Z,95.50
2019-05-05T10:39:39.417Z,94.90
2019-05-05T10:42:09.082Z,94.80
2019-05-05T10:44:44.501Z,94.20
2019-05-05T10:47:21.717Z,92.60
2019-05-05T10:50:04.939Z,94.20
2019-05-05T10:52:34.405Z,94.90
2019-05-05T10:55:29.213Z,93.70
2019-05-05T10:57:58.415Z,92.90
2019-05-05T11:00:46.710Z,94.10
2019-05-05T11:03:19.286Z,94.20
2019-05-05T11:05:48.169Z,95.20
2019-05-05T11:08:16.809Z,94.80
2019-05-05T11:10:45.799Z,93.00
2019-05-05T11:13:14.870Z,93.00
2019-05-05T11:15:44.292Z,94.20
2019-05-05T11:18:14.795Z,94.30
2019-05-05T11:20:44.843Z,92.60
2019-05-05T11:23:14.896Z,92.40
2019-05-05T11:25:44.403Z,93.40
2019-05-05T11:28:13.933Z,93.50
2019-05-05T11:30:45.178Z,94.00
2019-05-05T11:33:30.357Z,93.70
2019-05-05T11:36:01.771Z,94.10
2019-05-05T11:38:31.153Z,93.10
2019-05-05T11:41:00.023Z,94.50
2019-05-05T11:43:30.330Z,94.80
2019-05-05T11:46:00.744Z,93.80
2019-05-05T11:48:29.270Z,93.90
2019-05-05T11:50:57.721Z,94.80
2019-05-05T11:53:26.907Z,92.40
2019-05-05T11:55:55.579Z,94.30
2019-05-05T11:58:25.673Z,94.30
2019-05-05T12:00:54.608Z,94.10
2019-05-05T12:03:23.588Z,92.80
2019-05-05T12:05:54.368Z,94.20
2019-05-05T12:08:25.925Z,92.60
2019-05-05T12:10:57.033Z,92.90
2019-05-05T12:13:26.632Z,92.00
2019-05-05T12:15:58.316Z,92.50
2019-05-05T12:18:26.785Z,91.90
2019-05-05T12:20:56.046Z,93.90
2019-05-05T12:23:25.423Z,93.50
2019-05-05T12:25:59.788Z,93.40
2019-05-05T12:28:34.644Z,92.20
2019-05-05T12:31:17.422Z,92.10
2019-05-05T12:33:46.112Z,92.40
2019-05-05T12:36:15.205Z,91.30
2019-05-05T12:38:46.891Z,92.10
2019-05-05T12:41:17.329Z,92.20
2019-05-05T12:43:46.121Z,91.80
2019-05-05T12:46:24.705Z,93.10
2019-05-05T12:48:55.631Z,92.80
2019-05-05T12:51:25.999Z,90.80
2019-05-05T12:53:55.327Z,92.50
2019-05-05T12:56:24.003Z,92.20
2019-05-05T12:58:54.547Z,93.30
2019-05-05T13:01:28.134Z,92.90
2019-05-05T13:04:09.489Z,92.90
2019-05-05T13:06:38.852Z,92.80
2019-05-05T13:09:10.825Z,93.70
2019-05-05T13:11:39.446Z,93.00
2019-05-05T13:14:09.542Z,92.30
2019-05-05T13:16:37.964Z,92.60
2019-05-05T13:19:08.158Z,93.50
2019-05-05T13:21:54.579Z,92.50
2019-05-05T13:24:34.388Z,91.50
2019-05-05T13:27:19.106Z,92.20
2019-05-05T13:29:44.336Z,91.90
2019-05-05T13:32:14.486Z,91.50
2019-05-05T13:34:43.982Z,90.30
2019-05-05T13:37:15.743Z,91.30
2019-05-05T13:39:46.505Z,91.50
2019-05-05T13:42:16.897Z,91.50
2019-05-05T13:44:51.590Z,92.10
2019-05-05T13:47:20.446Z,91.90
2019-05-05T13:49:50.280Z,91.30
2019-05-05T13:52:19.537Z,92.70
2019-05-05T13:54:55.397Z,92.10
2019-05-05T13:57:36.738Z,92.10
2019-05-05T14:00:03.841Z,91.50
2019-05-05T14:02:34.588Z,92.20
2019-05-05T14:05:04.647Z,92.90
2019-05-05T14:07:37.036Z,92.50
2019-05-05T14:10:08.715Z,92.00
2019-05-05T14:12:40.784Z,93.20
2019-05-05T14:15:11.144Z,94.10
2019-05-05T14:17:40.728Z,94.70
2019-05-05T14:20:12.054Z,93.40
2019-05-05T14:22:40.498Z,93.30
2019-05-05T14:25:13.937Z,95.50
2019-05-05T14:27:43.638Z,95.10
2019-05-05T14:30:20.321Z,94.30
2019-05-05T14:32:49.055Z,93.90
2019-05-05T14:35:22.321Z,94.40
2019-05-05T14:38:03.999Z,93.30
2019-05-05T14:40:33.925Z,93.30
2019-05-05T14:43:04.534Z,94.20
2019-05-05T14:45:34.037Z,92.70
2019-05-05T14:48:06.117Z,93.90
2019-05-05T14:50:34.773Z,94.40
2019-05-05T14:53:04.049Z,93.30
2019-05-05T14:55:33.589Z,94.50
2019-05-05T14:58:04.027Z,93.30
2019-05-05T15:00:33.666Z,92.60
2019-05-05T15:03:03.729Z,92.40
2019-05-05T15:05:50.449Z,92.90
2019-05-05T15:08:20.976Z,92.30
2019-05-05T15:11:03.531Z,91.90
2019-05-05T15:13:33.635Z,91.40
2019-05-05T15:16:04.032Z,91.60
2019-05-05T15:18:34.455Z,90.20
2019-05-05T15:21:03.175Z,89.50
2019-05-05T15:23:34.475Z,89.50
2019-05-05T15:26:04.508Z,90.30
2019-05-05T15:28:33.684Z,89.20
2019-05-05T15:31:02.312Z,89.40
2019-05-05T15:33:33.504Z,90.70
2019-05-05T15:36:04.456Z,90.70
2019-05-05T15:38:34.925Z,87.70
2019-05-05T15:41:04.048Z,88.60
2019-05-05T15:43:38.483Z,88.80
2019-05-05T15:46:07.647Z,90.50
2019-05-05T15:48:40.128Z,90.10
2019-05-05T15:51:14.881Z,90.50
2019-05-05T15:53:44.508Z,88.90
2019-05-05T15:56:18.605Z,88.50
2019-05-05T15:58:49.847Z,90.60
2019-05-05T16:01:20.246Z,90.70
2019-05-05T16:04:03.657Z,90.40
2019-05-05T16:06:34.574Z,89.60
2019-05-05T16:09:05.519Z,89.80
2019-05-05T16:11:36.862Z,89.80
2019-05-05T16:14:05.956Z,88.50
2019-05-05T16:16:35.901Z,89.30
2019-05-05T16:19:08.780Z,90.10
2019-05-05T16:21:48.168Z,89.40
2019-05-05T16:24:25.832Z,88.10
2019-05-05T16:26:55.676Z,89.90
2019-05-05T16:29:25.420Z,86.00
2019-05-05T16:31:57.940Z,89.60
2019-05-05T16:34:28.603Z,89.10
2019-05-05T16:36:58.229Z,90.10
2019-05-05T16:39:27.523Z,88.60
2019-05-05T16:41:56.914Z,87.10
2019-05-05T16:44:25.959Z,87.50
2019-05-05T16:46:57.497Z,90.30
2019-05-05T16:49:26.431Z,88.90
2019-05-05T16:51:57.471Z,88.80
2019-05-05T16:54:28.113Z,90.60
2019-05-05T16:56:57.023Z,90.90
2019-05-05T16:59:26.839Z,91.70
2019-05-05T17:01:57.050Z,91.00
2019-05-05T17:04:25.843Z,91.50
2019-05-05T17:06:54.806Z,90.80
2019-05-05T17:09:24.246Z,90.90
2019-05-05T17:12:10.701Z,91.00
2019-05-05T17:15:01.255Z,92.60
2019-05-05T17:17:39.476Z,92.50
2019-05-05T17:20:24.862Z,91.10
2019-05-05T17:22:58.531Z,92.50
2019-05-05T17:25:34.267Z,91.60
2019-05-05T17:28:04.401Z,90.70
2019-05-05T17:30:38.392Z,92.20
2019-05-05T17:33:10.931Z,89.50
2019-05-05T17:35:42.864Z,92.10
2019-05-05T17:38:24.412Z,91.30
2019-05-05T17:40:58.273Z,90.40
2019-05-05T17:43:34.840Z,92.30
2019-05-05T17:46:15.084Z,90.30
2019-05-05T17:48:56.411Z,91.40
2019-05-05T17:51:31.296Z,90.00
2019-05-05T17:54:11.469Z,89.90
2019-05-05T17:56:41.810Z,87.90
2019-05-05T17:59:10.996Z,84.90
2019-05-05T18:01:40.749Z,86.10
2019-05-05T18:04:15.144Z,87.50
2019-05-05T18:06:48.391Z,86.50
2019-05-05T18:09:28.995Z,85.60
2019-05-05T18:11:59.273Z,87.40
2019-05-05T18:14:35.504Z,90.00
2019-05-05T18:17:05.202Z,90.20
2019-05-05T18:19:34.101Z,90.00
2019-05-05T18:22:02.866Z,90.20
2019-05-05T18:24:33.567Z,90.50
2019-05-05T18:27:04.679Z,91.30
2019-05-05T18:29:39.127Z,92.40
2019-05-05T18:32:09.117Z,91.50
2019-05-05T18:34:38.298Z,92.20
2019-05-05T18:37:08.857Z,92.20
2019-05-05T18:39:40.568Z,92.40
2019-05-05T18:42:24.549Z,92.90
2019-05-05T18:44:59.949Z,92.90
2019-05-05T18:47:34.114Z,93.00
2019-05-05T18:50:04.252Z,93.10
2019-05-05T18:52:38.464Z,92.50
2019-05-05T18:55:08.997Z,92.30
2019-05-05T18:57:39.038Z,93.20
2019-05-05T19:00:09.893Z,93.50
2019-05-05T19:02:49.137Z,94.50
2019-05-05T19:05:26.034Z,94.50
2019-05-05T19:07:56.874Z,94.40
2019-05-05T19:10:30.849Z,94.90
2019-05-05T19:12:59.884Z,95.10
2019-05-05T19:15:34.899Z,95.50
2019-05-05T19:18:00.369Z,95.50
2019-05-05T19:20:36.525Z,95.60
2019-05-05T19:23:06.435Z,94.60
2019-05-05T19:25:35.791Z,95.60
2019-05-05T19:28:04.850Z,94.70
2019-05-05T19:30:36.191Z,94.50
2019-05-05T19:33:06.092Z,93.00
2019-05-05T19:35:43.517Z,93.80
2019-05-05T19:38:05.044Z,93.50
2019-05-05T19:40:35.315Z,93.70
2019-05-05T19:43:04.762Z,92.20
2019-05-05T19:45:34.721Z,92.30
2019-05-05T19:48:06.006Z,91.30
2019-05-05T19:50:56.299Z,91.70
2019-05-05T19:53:25.860Z,92.20
2019-05-05T19:55:57.965Z,92.40
2019-05-05T19:58:27.271Z,91.40
2019-05-05T20:00:58.488Z,91.10
2019-05-05T20:03:29.861Z,91.60
2019-05-05T20:05:59.239Z,91.20
2019-05-05T20:08:39.799Z,92.20
2019-05-05T20:10:59.825Z,92.70
2019-05-05T20:13:28.024Z,93.10
2019-05-05T20:16:09.240Z,92.60
2019-05-05T20:18:37.708Z,91.70
2019-05-05T20:21:07.394Z,91.60
2019-05-05T20:23:37.610Z,91.40
2019-05-05T20:26:14.396Z,91.90
2019-05-05T20:28:43.215Z,92.70
2019-05-05T20:31:14.212Z,94.40
2019-05-05T20:33:48.847Z,95.90
2019-05-05T20:36:19.159Z,96.30
2019-05-05T20:39:06.161Z,96.60
2019-05-05T20:41:35.378Z,96.60
2019-05-05T20:49:57.103Z,97.30
2019-05-05T20:52:27.663Z,96.70
2019-05-05T20:57:53.673Z,97.10
2019-05-05T21:00:24.752Z,95.60
2019-05-05T21:03:00.233Z,94.80
2019-05-05T21:05:35.826Z,92.60
2019-05-05T21:08:10.039Z,94.60
2019-05-05T21:10:44.102Z,92.50
2019-05-05T21:13:14.405Z,93.40
2019-05-05T21:15:45.073Z,92.80
2019-05-05T21:18:14.745Z,92.90
2019-05-05T21:20:44.479Z,92.10
2019-05-05T21:23:34.079Z,92.60
2019-05-05T21:26:13.837Z,94.10
2019-05-05T21:28:44.530Z,91.80
2019-05-05T21:31:17.816Z,91.30
2019-05-05T21:33:50.501Z,91.10
2019-05-05T21:36:27.213Z,90.90
2019-05-05T21:39:25.036Z,92.00
2019-05-05T21:41:58.774Z,90.30
2019-05-05T21:44:28.750Z,90.40
2019-05-05T21:46:59.300Z,91.80
2019-05-05T21:49:28.524Z,91.90
2019-05-05T21:52:07.881Z,88.10
2019-05-05T21:54:37.223Z,91.00
2019-05-05T21:57:14.055Z,91.40
2019-05-05T21:59:55.167Z,90.20
2019-05-05T22:02:15.303Z,90.30
2019-05-05T22:04:43.790Z,90.50
2019-05-05T22:07:14.416Z,88.20
2019-05-05T22:09:42.576Z,89.40
2019-05-05T22:12:13.423Z,90.00
2019-05-05T22:14:43.896Z,91.20
2019-05-05T22:17:14.678Z,91.50
2019-05-05T22:20:00.210Z,91.80
2019-05-05T22:22:31.403Z,91.30
2019-05-05T22:25:00.350Z,91.00
2019-05-05T22:27:30.554Z,90.70
2019-05-05T22:30:09.617Z,91.10
2019-05-05T22:32:30.374Z,90.30
2019-05-05T22:35:00.955Z,91.70
2019-05-05T22:37:30.895Z,90.90
2019-05-05T22:39:59.859Z,92.10
2019-05-05T22:42:30.888Z,92.50
2019-05-05T22:44:59.674Z,91.40
2019-05-05T22:47:34.528Z,91.40
2019-05-05T22:50:04.442Z,92.10
2019-05-05T22:52:34.358Z,92.20
2019-05-05T22:55:04.538Z,92.60
2019-05-05T22:57:34.449Z,93.20
2019-05-05T23:00:05.227Z,93.30
2019-05-05T23:02:35.746Z,93.70
2019-05-05T23:05:07.894Z,93.20
2019-05-05T23:07:38.811Z,93.40
2019-05-05T23:10:08.583Z,93.50
2019-05-05T23:12:40.932Z,93.40
2019-05-05T23:15:10.305Z,94.40
2019-05-05T23:17:54.313Z,94.20
2019-05-05T23:20:50.809Z,94.60
2019-05-05T23:23:27.181Z,94.70
2019-05-05T23:25:57.454Z,94.60
2019-05-05T23:28:26.875Z,94.80
2019-05-05T23:30:55.301Z,95.30
2019-05-05T23:33:25.137Z,94.50
2019-05-05T23:35:54.904Z,94.90
2019-05-05T23:38:25.316Z,95.30
2019-05-05T23:40:54.214Z,95.10
2019-05-05T23:43:24.778Z,95.70
2019-05-05T23:45:54.154Z,95.30
2019-05-05T23:48:24.046Z,95.80
2019-05-05T23:50:54.205Z,95.70
2019-05-05T23:53:24.920Z,95.70
2019-05-05T23:55:54.620Z,96.00
2019-05-05T23:58:26.406Z,96.00
